sensor_id;sensor_type;location;lat;lon;timestamp;temperature;humidity
64817;DHT22;69037;45.634;11.704;2023-04-06T00:00:00;19.40;43.50
64817;DHT22;69037;45.634;11.704;2023-04-06T00:02:26;19.40;43.40
64817;DHT22;69037;45.634;11.704;2023-04-06T00:04:53;19.40;43.40
64817;DHT22;69037;45.634;11.704;2023-04-06T00:07:19;19.40;43.40
64817;DHT22;69037;45.634;11.704;2023-04-06T00:09:46;19.40;43.40
64817;DHT22;69037;45.634;11.704;2023-04-06T00:12:12;19.40;43.30
64817;DHT22;69037;45.634;11.704;2023-04-06T00:14:39;19.40;43.30
64817;DHT22;69037;45.634;11.704;2023-04-06T00:17:06;19.30;43.30
64817;DHT22;69037;45.634;11.704;2023-04-06T00:19:31;19.30;43.30
64817;DHT22;69037;45.634;11.704;2023-04-06T00:21:58;19.40;43.20
64817;DHT22;69037;45.634;11.704;2023-04-06T00:24:25;19.30;43.20
64817;DHT22;69037;45.634;11.704;2023-04-06T00:26:51;19.30;43.20
64817;DHT22;69037;45.634;11.704;2023-04-06T00:29:18;19.30;43.10
64817;DHT22;69037;45.634;11.704;2023-04-06T00:31:44;19.30;43.10
64817;DHT22;69037;45.634;11.704;2023-04-06T00:34:10;19.30;43.10
64817;DHT22;69037;45.634;11.704;2023-04-06T00:36:36;19.30;43.10
64817;DHT22;69037;45.634;11.704;2023-04-06T00:39:02;19.30;43.10
64817;DHT22;69037;45.634;11.704;2023-04-06T00:41:28;19.30;43.00
64817;DHT22;69037;45.634;11.704;2023-04-06T00:43:55;19.20;43.00
64817;DHT22;69037;45.634;11.704;2023-04-06T00:46:21;19.20;43.00
64817;DHT22;69037;45.634;11.704;2023-04-06T00:48:47;19.20;42.90
64817;DHT22;69037;45.634;11.704;2023-04-06T00:51:13;19.20;42.90
64817;DHT22;69037;45.634;11.704;2023-04-06T00:53:39;19.20;42.90
64817;DHT22;69037;45.634;11.704;2023-04-06T00:56:05;19.20;42.90
64817;DHT22;69037;45.634;11.704;2023-04-06T00:58:31;19.20;42.80
64817;DHT22;69037;45.634;11.704;2023-04-06T01:00:57;19.20;42.80
64817;DHT22;69037;45.634;11.704;2023-04-06T01:03:24;19.20;42.80
64817;DHT22;69037;45.634;11.704;2023-04-06T01:05:51;19.20;42.80
64817;DHT22;69037;45.634;11.704;2023-04-06T01:08:21;19.20;42.80
64817;DHT22;69037;45.634;11.704;2023-04-06T01:10:46;19.20;42.70
64817;DHT22;69037;45.634;11.704;2023-04-06T01:13:12;19.20;42.70
64817;DHT22;69037;45.634;11.704;2023-04-06T01:15:38;19.10;42.60
64817;DHT22;69037;45.634;11.704;2023-04-06T01:18:04;19.10;42.60
64817;DHT22;69037;45.634;11.704;2023-04-06T01:20:32;19.10;42.60
64817;DHT22;69037;45.634;11.704;2023-04-06T01:22:58;19.10;42.60
64817;DHT22;69037;45.634;11.704;2023-04-06T01:25:25;19.10;42.60
64817;DHT22;69037;45.634;11.704;2023-04-06T01:27:51;19.10;42.60
64817;DHT22;69037;45.634;11.704;2023-04-06T01:30:17;19.10;42.50
64817;DHT22;69037;45.634;11.704;2023-04-06T01:32:43;19.10;42.50
64817;DHT22;69037;45.634;11.704;2023-04-06T01:35:10;19.00;42.50
64817;DHT22;69037;45.634;11.704;2023-04-06T01:37:36;19.00;42.50
64817;DHT22;69037;45.634;11.704;2023-04-06T01:40:02;19.00;42.40
64817;DHT22;69037;45.634;11.704;2023-04-06T01:42:28;19.00;42.40
64817;DHT22;69037;45.634;11.704;2023-04-06T01:44:55;19.00;42.50
64817;DHT22;69037;45.634;11.704;2023-04-06T01:47:22;19.00;42.50
64817;DHT22;69037;45.634;11.704;2023-04-06T01:49:48;19.00;42.50
64817;DHT22;69037;45.634;11.704;2023-04-06T01:52:14;19.00;42.50
64817;DHT22;69037;45.634;11.704;2023-04-06T01:54:41;19.00;42.50
64817;DHT22;69037;45.634;11.704;2023-04-06T01:57:09;19.00;42.50
64817;DHT22;69037;45.634;11.704;2023-04-06T01:59:36;19.00;42.50
64817;DHT22;69037;45.634;11.704;2023-04-06T02:02:02;18.90;42.40
64817;DHT22;69037;45.634;11.704;2023-04-06T02:04:28;18.90;42.40
64817;DHT22;69037;45.634;11.704;2023-04-06T02:06:54;19.00;42.40
64817;DHT22;69037;45.634;11.704;2023-04-06T02:09:20;18.90;42.40
64817;DHT22;69037;45.634;11.704;2023-04-06T02:11:47;18.90;42.30
64817;DHT22;69037;45.634;11.704;2023-04-06T02:14:14;18.90;42.30
64817;DHT22;69037;45.634;11.704;2023-04-06T02:16:44;18.90;42.30
64817;DHT22;69037;45.634;11.704;2023-04-06T02:19:10;18.90;42.30
64817;DHT22;69037;45.634;11.704;2023-04-06T02:21:36;18.90;42.30
64817;DHT22;69037;45.634;11.704;2023-04-06T02:24:02;18.90;42.20
64817;DHT22;69037;45.634;11.704;2023-04-06T02:26:29;18.90;42.20
64817;DHT22;69037;45.634;11.704;2023-04-06T02:28:56;18.90;42.20
64817;DHT22;69037;45.634;11.704;2023-04-06T02:31:23;18.90;42.10
64817;DHT22;69037;45.634;11.704;2023-04-06T02:33:49;18.90;42.10
64817;DHT22;69037;45.634;11.704;2023-04-06T02:36:16;18.90;42.10
64817;DHT22;69037;45.634;11.704;2023-04-06T02:38:44;18.90;42.10
64817;DHT22;69037;45.634;11.704;2023-04-06T02:41:10;18.90;42.10
64817;DHT22;69037;45.634;11.704;2023-04-06T02:43:36;18.90;42.10
64817;DHT22;69037;45.634;11.704;2023-04-06T02:46:01;18.90;42.00
64817;DHT22;69037;45.634;11.704;2023-04-06T02:48:28;18.90;42.00
64817;DHT22;69037;45.634;11.704;2023-04-06T02:50:54;18.90;42.00
64817;DHT22;69037;45.634;11.704;2023-04-06T02:53:19;18.90;41.90
64817;DHT22;69037;45.634;11.704;2023-04-06T02:55:46;18.80;41.90
64817;DHT22;69037;45.634;11.704;2023-04-06T02:58:12;18.80;41.90
64817;DHT22;69037;45.634;11.704;2023-04-06T03:00:38;18.80;41.90
64817;DHT22;69037;45.634;11.704;2023-04-06T03:03:04;18.80;41.80
64817;DHT22;69037;45.634;11.704;2023-04-06T03:05:31;18.80;41.80
64817;DHT22;69037;45.634;11.704;2023-04-06T03:07:58;18.80;41.80
64817;DHT22;69037;45.634;11.704;2023-04-06T03:10:25;18.80;41.80
64817;DHT22;69037;45.634;11.704;2023-04-06T03:12:51;18.80;41.70
64817;DHT22;69037;45.634;11.704;2023-04-06T03:15:18;18.80;41.70
64817;DHT22;69037;45.634;11.704;2023-04-06T03:17:43;18.70;41.70
64817;DHT22;69037;45.634;11.704;2023-04-06T03:20:10;18.80;41.70
64817;DHT22;69037;45.634;11.704;2023-04-06T03:22:36;18.80;41.60
64817;DHT22;69037;45.634;11.704;2023-04-06T03:25:01;18.80;41.60
64817;DHT22;69037;45.634;11.704;2023-04-06T03:27:31;18.70;41.60
64817;DHT22;69037;45.634;11.704;2023-04-06T03:29:58;18.70;41.60
64817;DHT22;69037;45.634;11.704;2023-04-06T03:32:23;18.70;41.50
64817;DHT22;69037;45.634;11.704;2023-04-06T03:34:50;18.70;41.50
64817;DHT22;69037;45.634;11.704;2023-04-06T03:37:17;18.70;41.50
64817;DHT22;69037;45.634;11.704;2023-04-06T03:39:43;18.70;41.50
64817;DHT22;69037;45.634;11.704;2023-04-06T03:42:10;18.70;41.50
64817;DHT22;69037;45.634;11.704;2023-04-06T03:44:36;18.70;41.40
64817;DHT22;69037;45.634;11.704;2023-04-06T03:47:02;18.70;41.40
64817;DHT22;69037;45.634;11.704;2023-04-06T03:49:28;18.70;41.40
64817;DHT22;69037;45.634;11.704;2023-04-06T03:51:56;18.70;41.40
64817;DHT22;69037;45.634;11.704;2023-04-06T03:54:22;18.70;41.40
64817;DHT22;69037;45.634;11.704;2023-04-06T03:56:51;18.70;41.30
64817;DHT22;69037;45.634;11.704;2023-04-06T03:59:18;18.70;41.30
64817;DHT22;69037;45.634;11.704;2023-04-06T04:01:45;18.70;41.30
64817;DHT22;69037;45.634;11.704;2023-04-06T04:04:12;18.60;41.30
64817;DHT22;69037;45.634;11.704;2023-04-06T04:06:37;18.60;41.20
64817;DHT22;69037;45.634;11.704;2023-04-06T04:09:04;18.60;41.20
64817;DHT22;69037;45.634;11.704;2023-04-06T04:11:30;18.60;41.20
64817;DHT22;69037;45.634;11.704;2023-04-06T04:13:55;18.60;41.20
64817;DHT22;69037;45.634;11.704;2023-04-06T04:16:25;18.60;41.30
64817;DHT22;69037;45.634;11.704;2023-04-06T04:18:51;18.60;41.30
64817;DHT22;69037;45.634;11.704;2023-04-06T04:21:17;18.60;41.30
64817;DHT22;69037;45.634;11.704;2023-04-06T04:23:43;18.60;41.30
64817;DHT22;69037;45.634;11.704;2023-04-06T04:26:12;18.60;41.30
64817;DHT22;69037;45.634;11.704;2023-04-06T04:28:38;18.60;41.30
64817;DHT22;69037;45.634;11.704;2023-04-06T04:31:04;18.60;41.40
64817;DHT22;69037;45.634;11.704;2023-04-06T04:33:30;18.50;41.40
64817;DHT22;69037;45.634;11.704;2023-04-06T04:35:56;18.50;41.40
64817;DHT22;69037;45.634;11.704;2023-04-06T04:38:24;18.50;41.40
64817;DHT22;69037;45.634;11.704;2023-04-06T04:40:50;18.50;41.50
64817;DHT22;69037;45.634;11.704;2023-04-06T04:43:16;18.50;41.40
64817;DHT22;69037;45.634;11.704;2023-04-06T04:45:45;18.50;41.40
64817;DHT22;69037;45.634;11.704;2023-04-06T04:48:12;18.50;41.40
64817;DHT22;69037;45.634;11.704;2023-04-06T04:50:38;18.50;41.40
64817;DHT22;69037;45.634;11.704;2023-04-06T04:53:04;18.50;41.60
64817;DHT22;69037;45.634;11.704;2023-04-06T04:55:31;18.50;41.40
64817;DHT22;69037;45.634;11.704;2023-04-06T04:57:57;18.60;41.50
64817;DHT22;69037;45.634;11.704;2023-04-06T05:00:24;18.60;41.60
64817;DHT22;69037;45.634;11.704;2023-04-06T05:02:51;18.60;41.70
64817;DHT22;69037;45.634;11.704;2023-04-06T05:05:21;18.60;41.70
64817;DHT22;69037;45.634;11.704;2023-04-06T05:07:47;18.60;41.70
64817;DHT22;69037;45.634;11.704;2023-04-06T05:10:13;18.60;41.60
64817;DHT22;69037;45.634;11.704;2023-04-06T05:12:38;18.50;41.60
64817;DHT22;69037;45.634;11.704;2023-04-06T05:15:05;18.50;41.60
64817;DHT22;69037;45.634;11.704;2023-04-06T05:17:32;18.50;41.60
64817;DHT22;69037;45.634;11.704;2023-04-06T05:20:00;18.50;41.60
64817;DHT22;69037;45.634;11.704;2023-04-06T05:22:26;18.50;41.70
